Terminal Aerodrome Forecast
Issued by NWS Charleston, WV

Current Version | Previous Version | Graphics & Text | Print | Product List | Glossary On
Versions: 1 2 3 4 5 6 7 8 9 10 11 12 13 14 15 16 17 18 19 20 21 22 23 24
661
FTUS41 KRLX 212329
TAFEKN
TAF
KEKN 212329Z 2200/2224 20006KT P6SM SCT250
     FM220600 26006KT P6SM BKN070
     FM221000 29007KT 4SM -SHRASN OVC022
     FM221300 30008G15KT P6SM OVC013
     FM221400 30008G14KT P6SM OVC020
     FM221700 31007KT P6SM SCT035=

USA.gov is the U.S. government's official web portal to all federal, state and local government web resources and services.